sensor_id;sensor_type;location;lat;lon;timestamp;temperature;humidity
31074;DHT22;17730;53.552;9.940;2023-05-18T00:01:05;8.20;1.00
31074;DHT22;17730;53.552;9.940;2023-05-18T00:03:31;8.20;1.00
31074;DHT22;17730;53.552;9.940;2023-05-18T00:05:58;8.20;1.00
31074;DHT22;17730;53.552;9.940;2023-05-18T00:08:30;8.20;3.30
31074;DHT22;17730;53.552;9.940;2023-05-18T00:10:56;8.20;44.20
31074;DHT22;17730;53.552;9.940;2023-05-18T00:13:21;8.20;23.00
31074;DHT22;17730;53.552;9.940;2023-05-18T00:15:47;8.20;28.50
31074;DHT22;17730;53.552;9.940;2023-05-18T00:18:12;8.20;50.60
31074;DHT22;17730;53.552;9.940;2023-05-18T00:20:38;8.10;92.90
31074;DHT22;17730;53.552;9.940;2023-05-18T00:23:03;8.10;99.90
31074;DHT22;17730;53.552;9.940;2023-05-18T00:25:30;8.20;98.60
31074;DHT22;17730;53.552;9.940;2023-05-18T00:27:55;8.20;97.80
31074;DHT22;17730;53.552;9.940;2023-05-18T00:30:21;8.20;98.40
31074;DHT22;17730;53.552;9.940;2023-05-18T00:32:48;8.20;99.90
31074;DHT22;17730;53.552;9.940;2023-05-18T00:35:14;8.20;99.90
31074;DHT22;17730;53.552;9.940;2023-05-18T00:37:39;8.20;99.90
31074;DHT22;17730;53.552;9.940;2023-05-18T00:40:05;8.30;99.90
31074;DHT22;17730;53.552;9.940;2023-05-18T00:42:31;8.30;62.50
31074;DHT22;17730;53.552;9.940;2023-05-18T00:44:56;8.30;64.40
31074;DHT22;17730;53.552;9.940;2023-05-18T00:47:21;8.30;69.20
31074;DHT22;17730;53.552;9.940;2023-05-18T00:49:47;8.30;52.20
31074;DHT22;17730;53.552;9.940;2023-05-18T00:52:13;8.30;28.70
31074;DHT22;17730;53.552;9.940;2023-05-18T00:54:39;8.30;26.10
31074;DHT22;17730;53.552;9.940;2023-05-18T00:57:05;8.30;19.10
31074;DHT22;17730;53.552;9.940;2023-05-18T00:59:30;8.30;27.60
31074;DHT22;17730;53.552;9.940;2023-05-18T01:01:56;8.30;63.90
31074;DHT22;17730;53.552;9.940;2023-05-18T01:04:22;8.40;44.70
31074;DHT22;17730;53.552;9.940;2023-05-18T01:06:48;8.40;41.40
31074;DHT22;17730;53.552;9.940;2023-05-18T01:09:15;8.30;9.60
31074;DHT22;17730;53.552;9.940;2023-05-18T01:12:42;8.30;14.20
31074;DHT22;17730;53.552;9.940;2023-05-18T01:14:37;8.30;19.50
31074;DHT22;17730;53.552;9.940;2023-05-18T01:22:36;8.30;56.90
31074;DHT22;17730;53.552;9.940;2023-05-18T01:25:17;8.40;1.00
31074;DHT22;17730;53.552;9.940;2023-05-18T01:27:44;8.40;1.00
31074;DHT22;17730;53.552;9.940;2023-05-18T01:30:12;8.40;1.00
31074;DHT22;17730;53.552;9.940;2023-05-18T01:32:39;8.30;1.00
31074;DHT22;17730;53.552;9.940;2023-05-18T01:35:07;8.30;1.00
31074;DHT22;17730;53.552;9.940;2023-05-18T01:37:32;8.30;16.20
31074;DHT22;17730;53.552;9.940;2023-05-18T01:39:58;8.30;51.60
31074;DHT22;17730;53.552;9.940;2023-05-18T01:42:25;8.20;74.70
31074;DHT22;17730;53.552;9.940;2023-05-18T01:44:52;8.30;50.40
31074;DHT22;17730;53.552;9.940;2023-05-18T01:47:22;8.30;22.40
31074;DHT22;17730;53.552;9.940;2023-05-18T01:55:02;8.20;17.00
31074;DHT22;17730;53.552;9.940;2023-05-18T01:57:28;8.10;44.70
31074;DHT22;17730;53.552;9.940;2023-05-18T01:59:55;8.10;44.20
31074;DHT22;17730;53.552;9.940;2023-05-18T02:02:24;8.10;36.60
31074;DHT22;17730;53.552;9.940;2023-05-18T02:04:50;8.00;45.60
31074;DHT22;17730;53.552;9.940;2023-05-18T02:07:16;8.00;40.80
31074;DHT22;17730;53.552;9.940;2023-05-18T02:09:41;8.00;21.70
31074;DHT22;17730;53.552;9.940;2023-05-18T02:12:08;8.10;6.60
31074;DHT22;17730;53.552;9.940;2023-05-18T02:14:34;8.10;1.00
31074;DHT22;17730;53.552;9.940;2023-05-18T02:16:59;8.10;1.00
31074;DHT22;17730;53.552;9.940;2023-05-18T02:19:25;8.10;1.00
31074;DHT22;17730;53.552;9.940;2023-05-18T02:21:50;8.00;7.40
31074;DHT22;17730;53.552;9.940;2023-05-18T02:24:16;7.90;1.00
31074;DHT22;17730;53.552;9.940;2023-05-18T02:26:44;7.80;1.00
31074;DHT22;17730;53.552;9.940;2023-05-18T02:29:10;7.80;1.00
31074;DHT22;17730;53.552;9.940;2023-05-18T02:31:38;7.80;1.00
31074;DHT22;17730;53.552;9.940;2023-05-18T02:34:04;7.80;1.00
31074;DHT22;17730;53.552;9.940;2023-05-18T02:36:30;7.80;1.00
31074;DHT22;17730;53.552;9.940;2023-05-18T02:39:01;7.80;1.00
31074;DHT22;17730;53.552;9.940;2023-05-18T02:41:27;7.90;1.00
31074;DHT22;17730;53.552;9.940;2023-05-18T02:43:53;7.90;1.00
31074;DHT22;17730;53.552;9.940;2023-05-18T02:46:18;7.80;1.00
31074;DHT22;17730;53.552;9.940;2023-05-18T02:48:44;7.80;1.00
31074;DHT22;17730;53.552;9.940;2023-05-18T02:51:10;7.80;1.00
31074;DHT22;17730;53.552;9.940;2023-05-18T02:53:35;7.90;1.00
31074;DHT22;17730;53.552;9.940;2023-05-18T02:56:00;7.90;1.00
31074;DHT22;17730;53.552;9.940;2023-05-18T02:58:28;8.00;1.00
31074;DHT22;17730;53.552;9.940;2023-05-18T03:00:53;8.00;1.00
31074;DHT22;17730;53.552;9.940;2023-05-18T03:03:24;8.00;1.00
31074;DHT22;17730;53.552;9.940;2023-05-18T03:05:49;8.00;1.00
31074;DHT22;17730;53.552;9.940;2023-05-18T03:08:18;8.00;1.00
31074;DHT22;17730;53.552;9.940;2023-05-18T03:10:44;8.00;1.00
31074;DHT22;17730;53.552;9.940;2023-05-18T03:13:10;7.90;1.00
31074;DHT22;17730;53.552;9.940;2023-05-18T03:15:35;7.90;5.40
31074;DHT22;17730;53.552;9.940;2023-05-18T03:18:02;7.90;19.10
31074;DHT22;17730;53.552;9.940;2023-05-18T03:20:27;7.90;1.00
31074;DHT22;17730;53.552;9.940;2023-05-18T03:22:55;7.90;5.50
31074;DHT22;17730;53.552;9.940;2023-05-18T03:25:21;7.80;15.50
31074;DHT22;17730;53.552;9.940;2023-05-18T03:27:46;7.80;20.00
31074;DHT22;17730;53.552;9.940;2023-05-18T03:30:12;7.80;1.00
31074;DHT22;17730;53.552;9.940;2023-05-18T03:32:38;7.80;1.00
31074;DHT22;17730;53.552;9.940;2023-05-18T03:35:04;7.80;1.00
31074;DHT22;17730;53.552;9.940;2023-05-18T03:37:30;7.70;1.00
31074;DHT22;17730;53.552;9.940;2023-05-18T03:39:59;7.80;9.20
31074;DHT22;17730;53.552;9.940;2023-05-18T03:42:24;7.80;39.70
31074;DHT22;17730;53.552;9.940;2023-05-18T03:44:50;7.80;35.60
31074;DHT22;17730;53.552;9.940;2023-05-18T03:47:16;7.80;61.60
31074;DHT22;17730;53.552;9.940;2023-05-18T03:49:41;7.80;26.90
31074;DHT22;17730;53.552;9.940;2023-05-18T03:52:07;7.90;1.00
31074;DHT22;17730;53.552;9.940;2023-05-18T03:54:32;7.90;1.00
31074;DHT22;17730;53.552;9.940;2023-05-18T03:56:58;8.00;1.00
31074;DHT22;17730;53.552;9.940;2023-05-18T03:59:23;8.10;1.00
31074;DHT22;17730;53.552;9.940;2023-05-18T04:01:49;8.20;99.90
31074;DHT22;17730;53.552;9.940;2023-05-18T04:04:18;8.30;99.90
31074;DHT22;17730;53.552;9.940;2023-05-18T04:06:48;8.20;99.90
31074;DHT22;17730;53.552;9.940;2023-05-18T04:09:16;8.20;99.90
31074;DHT22;17730;53.552;9.940;2023-05-18T04:11:42;8.30;99.90
31074;DHT22;17730;53.552;9.940;2023-05-18T04:14:07;8.30;99.90
31074;DHT22;17730;53.552;9.940;2023-05-18T04:16:33;8.40;99.90
31074;DHT22;17730;53.552;9.940;2023-05-18T04:18:59;8.40;99.90
31074;DHT22;17730;53.552;9.940;2023-05-18T04:21:24;8.40;99.90
31074;DHT22;17730;53.552;9.940;2023-05-18T04:23:50;8.40;99.90
31074;DHT22;17730;53.552;9.940;2023-05-18T04:26:16;8.40;99.90
31074;DHT22;17730;53.552;9.940;2023-05-18T04:28:47;8.40;99.90
31074;DHT22;17730;53.552;9.940;2023-05-18T04:31:12;8.50;99.90
31074;DHT22;17730;53.552;9.940;2023-05-18T04:33:42;8.50;99.90
31074;DHT22;17730;53.552;9.940;2023-05-18T04:36:11;8.50;99.90
31074;DHT22;17730;53.552;9.940;2023-05-18T04:38:36;8.50;99.90
31074;DHT22;17730;53.552;9.940;2023-05-18T04:41:02;8.30;99.90
31074;DHT22;17730;53.552;9.940;2023-05-18T04:43:31;8.30;99.90
31074;DHT22;17730;53.552;9.940;2023-05-18T04:45:57;8.30;99.90
31074;DHT22;17730;53.552;9.940;2023-05-18T04:48:23;8.20;99.90
31074;DHT22;17730;53.552;9.940;2023-05-18T04:50:50;8.20;99.90
31074;DHT22;17730;53.552;9.940;2023-05-18T04:53:19;8.20;99.90
31074;DHT22;17730;53.552;9.940;2023-05-18T04:55:44;8.20;99.90
31074;DHT22;17730;53.552;9.940;2023-05-18T04:58:11;8.20;99.90
31074;DHT22;17730;53.552;9.940;2023-05-18T05:00:36;8.30;99.90
31074;DHT22;17730;53.552;9.940;2023-05-18T05:03:02;8.40;99.90
31074;DHT22;17730;53.552;9.940;2023-05-18T05:05:28;8.40;99.90
31074;DHT22;17730;53.552;9.940;2023-05-18T05:07:54;8.40;99.90
31074;DHT22;17730;53.552;9.940;2023-05-18T05:10:20;8.40;99.90
31074;DHT22;17730;53.552;9.940;2023-05-18T05:12:46;8.30;99.90
31074;DHT22;17730;53.552;9.940;2023-05-18T05:15:11;8.40;99.90
31074;DHT22;17730;53.552;9.940;2023-05-18T05:17:36;8.40;99.90
31074;DHT22;17730;53.552;9.940;2023-05-18T05:20:02;8.50;99.90
31074;DHT22;17730;53.552;9.940;2023-05-18T05:22:28;8.60;99.90
31074;DHT22;17730;53.552;9.940;2023-05-18T05:24:53;8.70;99.90
31074;DHT22;17730;53.552;9.940;2023-05-18T05:27:19;8.60;99.90
31074;DHT22;17730;53.552;9.940;2023-05-18T05:29:45;8.60;99.90
31074;DHT22;17730;53.552;9.940;2023-05-18T05:32:10;8.60;99.90
31074;DHT22;17730;53.552;9.940;2023-05-18T05:34:37;8.70;99.90
31074;DHT22;17730;53.552;9.940;2023-05-18T05:37:03;9.00;99.90
31074;DHT22;17730;53.552;9.940;2023-05-18T05:39:28;9.10;99.90
31074;DHT22;17730;53.552;9.940;2023-05-18T05:41:54;9.20;99.90
31074;DHT22;17730;53.552;9.940;2023-05-18T05:44:19;9.30;99.90
31074;DHT22;17730;53.552;9.940;2023-05-18T05:46:45;9.30;99.90
31074;DHT22;17730;53.552;9.940;2023-05-18T05:49:10;9.20;99.90
31074;DHT22;17730;53.552;9.940;2023-05-18T05:51:35;9.20;99.90
31074;DHT22;17730;53.552;9.940;2023-05-18T05:54:01;9.20;99.90
31074;DHT22;17730;53.552;9.940;2023-05-18T05:56:27;9.30;99.90
31074;DHT22;17730;53.552;9.940;2023-05-18T05:58:52;9.40;99.90
31074;DHT22;17730;53.552;9.940;2023-05-18T06:01:18;9.50;99.90
31074;DHT22;17730;53.552;9.940;2023-05-18T06:03:43;9.60;99.90
31074;DHT22;17730;53.552;9.940;2023-05-18T06:06:09;9.60;99.90
31074;DHT22;17730;53.552;9.940;2023-05-18T06:08:35;9.60;99.90
31074;DHT22;17730;53.552;9.940;2023-05-18T06:11:00;9.70;99.90
31074;DHT22;17730;53.552;9.940;2023-05-18T06:13:26;9.80;99.90
31074;DHT22;17730;53.552;9.940;2023-05-18T06:15:51;9.90;99.90
31074;DHT22;17730;53.552;9.940;2023-05-18T06:18:17;10.10;99.90
31074;DHT22;17730;53.552;9.940;2023-05-18T06:20:42;10.20;99.90
31074;DHT22;17730;53.552;9.940;2023-05-18T06:23:08;9.90;99.90
31074;DHT22;17730;53.552;9.940;2023-05-18T06:25:33;9.30;99.90
31074;DHT22;17730;53.552;9.940;2023-05-18T06:27:59;9.30;99.90
31074;DHT22;17730;53.552;9.940;2023-05-18T06:30:25;9.60;99.90
31074;DHT22;17730;53.552;9.940;2023-05-18T06:32:50;9.80;99.90
31074;DHT22;17730;53.552;9.940;2023-05-18T06:35:16;10.10;99.90
31074;DHT22;17730;53.552;9.940;2023-05-18T06:37:41;10.10;99.90
31074;DHT22;17730;53.552;9.940;2023-05-18T06:40:07;10.10;99.90
31074;DHT22;17730;53.552;9.940;2023-05-18T06:42:33;10.10;99.90
31074;DHT22;17730;53.552;9.940;2023-05-18T06:44:58;10.10;99.90
31074;DHT22;17730;53.552;9.940;2023-05-18T06:47:24;10.30;99.90
31074;DHT22;17730;53.552;9.940;2023-05-18T06:49:49;10.30;99.90
31074;DHT22;17730;53.552;9.940;2023-05-18T06:52:15;10.50;99.90
31074;DHT22;17730;53.552;9.940;2023-05-18T06:54:40;10.70;99.90
31074;DHT22;17730;53.552;9.940;2023-05-18T06:57:06;10.40;99.90
31074;DHT22;17730;53.552;9.940;2023-05-18T06:59:31;10.30;99.90
31074;DHT22;17730;53.552;9.940;2023-05-18T07:01:58;10.40;99.90
31074;DHT22;17730;53.552;9.940;2023-05-18T07:04:24;10.60;99.90
31074;DHT22;17730;53.552;9.940;2023-05-18T07:06:49;10.70;99.90
31074;DHT22;17730;53.552;9.940;2023-05-18T07:09:15;10.60;99.90
31074;DHT22;17730;53.552;9.940;2023-05-18T07:11:41;10.60;99.90
31074;DHT22;17730;53.552;9.940;2023-05-18T07:14:07;10.70;99.90
31074;DHT22;17730;53.552;9.940;2023-05-18T07:16:32;10.70;99.90
31074;DHT22;17730;53.552;9.940;2023-05-18T07:18:58;10.90;99.90
31074;DHT22;17730;53.552;9.940;2023-05-18T07:21:24;10.90;99.90
31074;DHT22;17730;53.552;9.940;2023-05-18T07:23:49;11.10;99.90
31074;DHT22;17730;53.552;9.940;2023-05-18T07:26:16;11.20;99.90
31074;DHT22;17730;53.552;9.940;2023-05-18T07:28:42;11.20;99.90
31074;DHT22;17730;53.552;9.940;2023-05-18T07:31:07;11.10;99.90
31074;DHT22;17730;53.552;9.940;2023-05-18T07:33:33;11.10;99.90
31074;DHT22;17730;53.552;9.940;2023-05-18T07:35:58;11.20;99.90
31074;DHT22;17730;53.552;9.940;2023-05-18T07:38:24;11.30;99.90
31074;DHT22;17730;53.552;9.940;2023-05-18T07:40:50;11.30;99.90
31074;DHT22;17730;53.552;9.940;2023-05-18T07:43:15;11.60;99.90
31074;DHT22;17730;53.552;9.940;2023-05-18T07:45:41;11.60;99.90
31074;DHT22;17730;53.552;9.940;2023-05-18T07:48:06;11.50;99.90
31074;DHT22;17730;53.552;9.940;2023-05-18T07:50:32;11.50;99.90
31074;DHT22;17730;53.552;9.940;2023-05-18T07:52:58;11.80;99.90
31074;DHT22;17730;53.552;9.940;2023-05-18T07:55:24;11.70;99.90
31074;DHT22;17730;53.552;9.940;2023-05-18T07:57:50;11.80;99.90
31074;DHT22;17730;53.552;9.940;2023-05-18T08:00:16;11.90;99.90
31074;DHT22;17730;53.552;9.940;2023-05-18T08:02:42;12.20;99.90
31074;DHT22;17730;53.552;9.940;2023-05-18T08:05:08;12.50;99.90
31074;DHT22;17730;53.552;9.940;2023-05-18T08:07:35;12.60;99.90
31074;DHT22;17730;53.552;9.940;2023-05-18T08:10:00;12.70;99.90
31074;DHT22;17730;53.552;9.940;2023-05-18T08:12:26;12.70;99.90
31074;DHT22;17730;53.552;9.940;2023-05-18T08:14:54;12.50;99.90
31074;DHT22;17730;53.552;9.940;2023-05-18T08:17:19;12.40;99.90
31074;DHT22;17730;53.552;9.940;2023-05-18T08:19:45;12.20;99.90
31074;DHT22;17730;53.552;9.940;2023-05-18T08:22:12;12.00;99.90
31074;DHT22;17730;53.552;9.940;2023-05-18T08:24:37;11.50;99.90
31074;DHT22;17730;53.552;9.940;2023-05-18T08:27:03;11.30;99.90
31074;DHT22;17730;53.552;9.940;2023-05-18T08:29:31;11.40;99.90
31074;DHT22;17730;53.552;9.940;2023-05-18T08:31:56;11.50;99.90
31074;DHT22;17730;53.552;9.940;2023-05-18T08:34:22;11.70;99.90
31074;DHT22;17730;53.552;9.940;2023-05-18T08:36:47;11.80;99.90
31074;DHT22;17730;53.552;9.940;2023-05-18T08:39:13;12.00;99.90
31074;DHT22;17730;53.552;9.940;2023-05-18T08:41:50;12.10;99.90
31074;DHT22;17730;53.552;9.940;2023-05-18T08:44:20;12.30;99.90
31074;DHT22;17730;53.552;9.940;2023-05-18T08:46:47;12.40;99.90
31074;DHT22;17730;53.552;9.940;2023-05-18T08:49:18;12.30;99.90
31074;DHT22;17730;53.552;9.940;2023-05-18T08:51:45;12.20;99.90
31074;DHT22;17730;53.552;9.940;2023-05-18T08:54:14;12.10;99.90
31074;DHT22;17730;53.552;9.940;2023-05-18T08:56:41;12.00;99.90
31074;DHT22;17730;53.552;9.940;2023-05-18T08:59:07;11.80;99.90
31074;DHT22;17730;53.552;9.940;2023-05-18T09:01:33;11.90;99.90
31074;DHT22;17730;53.552;9.940;2023-05-18T09:03:59;12.10;99.90
31074;DHT22;17730;53.552;9.940;2023-05-18T09:06:25;12.00;99.90
31074;DHT22;17730;53.552;9.940;2023-05-18T09:08:51;11.90;99.90
31074;DHT22;17730;53.552;9.940;2023-05-18T09:11:17;11.90;99.90
31074;DHT22;17730;53.552;9.940;2023-05-18T09:13:43;12.00;99.90
31074;DHT22;17730;53.552;9.940;2023-05-18T09:16:08;12.10;99.90
31074;DHT22;17730;53.552;9.940;2023-05-18T09:18:34;12.30;99.90
31074;DHT22;17730;53.552;9.940;2023-05-18T09:20:59;12.60;99.90
31074;DHT22;17730;53.552;9.940;2023-05-18T09:23:25;12.90;99.90
31074;DHT22;17730;53.552;9.940;2023-05-18T09:25:51;13.00;99.90
31074;DHT22;17730;53.552;9.940;2023-05-18T09:28:28;12.90;99.90
31074;DHT22;17730;53.552;9.940;2023-05-18T09:30:55;12.80;99.90
31074;DHT22;17730;53.552;9.940;2023-05-18T09:33:21;12.80;99.90
31074;DHT22;17730;53.552;9.940;2023-05-18T09:35:48;12.90;99.90
31074;DHT22;17730;53.552;9.940;2023-05-18T09:38:18;12.90;99.90
31074;DHT22;17730;53.552;9.940;2023-05-18T09:40:47;12.90;99.90
31074;DHT22;17730;53.552;9.940;2023-05-18T09:43:13;12.80;99.90
31074;DHT22;17730;53.552;9.940;2023-05-18T09:45:42;13.00;99.90
31074;DHT22;17730;53.552;9.940;2023-05-18T09:48:08;13.10;99.90
31074;DHT22;17730;53.552;9.940;2023-05-18T09:50:34;13.20;99.90
31074;DHT22;17730;53.552;9.940;2023-05-18T09:53:08;13.20;99.90
31074;DHT22;17730;53.552;9.940;2023-05-18T09:55:39;13.30;99.90
31074;DHT22;17730;53.552;9.940;2023-05-18T09:58:08;13.60;99.90
31074;DHT22;17730;53.552;9.940;2023-05-18T10:00:36;13.90;99.90
31074;DHT22;17730;53.552;9.940;2023-05-18T10:03:01;13.90;99.90
31074;DHT22;17730;53.552;9.940;2023-05-18T10:05:28;14.10;99.90
31074;DHT22;17730;53.552;9.940;2023-05-18T10:07:58;14.30;99.90
31074;DHT22;17730;53.552;9.940;2023-05-18T10:10:27;14.40;99.90
31074;DHT22;17730;53.552;9.940;2023-05-18T10:12:55;14.40;99.90
31074;DHT22;17730;53.552;9.940;2023-05-18T10:15:23;14.50;99.90
31074;DHT22;17730;53.552;9.940;2023-05-18T10:17:49;14.40;99.90
31074;DHT22;17730;53.552;9.940;2023-05-18T10:20:19;14.60;99.90
31074;DHT22;17730;53.552;9.940;2023-05-18T10:22:45;14.70;99.90
31074;DHT22;17730;53.552;9.940;2023-05-18T10:25:13;14.90;99.90
31074;DHT22;17730;53.552;9.940;2023-05-18T10:27:41;14.90;99.90
31074;DHT22;17730;53.552;9.940;2023-05-18T10:30:08;15.10;99.90
31074;DHT22;17730;53.552;9.940;2023-05-18T10:32:34;15.10;99.90
31074;DHT22;17730;53.552;9.940;2023-05-18T10:35:01;15.10;99.90
31074;DHT22;17730;53.552;9.940;2023-05-18T10:37:27;15.10;99.90
31074;DHT22;17730;53.552;9.940;2023-05-18T10:39:57;15.10;99.90
31074;DHT22;17730;53.552;9.940;2023-05-18T10:42:24;15.00;99.90
31074;DHT22;17730;53.552;9.940;2023-05-18T10:44:51;14.90;99.90
31074;DHT22;17730;53.552;9.940;2023-05-18T10:47:17;14.80;99.90
31074;DHT22;17730;53.552;9.940;2023-05-18T10:49:43;14.90;99.90
31074;DHT22;17730;53.552;9.940;2023-05-18T10:52:10;15.10;99.90
31074;DHT22;17730;53.552;9.940;2023-05-18T10:54:35;15.30;99.90
31074;DHT22;17730;53.552;9.940;2023-05-18T10:57:01;15.30;99.90
31074;DHT22;17730;53.552;9.940;2023-05-18T10:59:27;15.30;99.90
31074;DHT22;17730;53.552;9.940;2023-05-18T11:01:52;15.40;99.90
31074;DHT22;17730;53.552;9.940;2023-05-18T11:04:22;15.30;99.90
31074;DHT22;17730;53.552;9.940;2023-05-18T11:07:21;15.40;99.90
31074;DHT22;17730;53.552;9.940;2023-05-18T11:09:40;15.50;99.90
31074;DHT22;17730;53.552;9.940;2023-05-18T11:12:10;15.50;99.90
31074;DHT22;17730;53.552;9.940;2023-05-18T11:14:38;15.50;99.90
31074;DHT22;17730;53.552;9.940;2023-05-18T11:17:21;15.20;99.90
31074;DHT22;17730;53.552;9.940;2023-05-18T11:22:39;14.20;99.90
31074;DHT22;17730;53.552;9.940;2023-05-18T11:25:09;14.10;99.90
31074;DHT22;17730;53.552;9.940;2023-05-18T11:27:55;14.40;99.90
31074;DHT22;17730;53.552;9.940;2023-05-18T11:33:06;14.60;99.90
31074;DHT22;17730;53.552;9.940;2023-05-18T11:35:32;14.70;99.90
31074;DHT22;17730;53.552;9.940;2023-05-18T11:38:05;14.70;99.90
31074;DHT22;17730;53.552;9.940;2023-05-18T11:40:45;14.90;99.90
31074;DHT22;17730;53.552;9.940;2023-05-18T11:43:44;14.60;99.90
31074;DHT22;17730;53.552;9.940;2023-05-18T11:46:02;14.40;99.90
31074;DHT22;17730;53.552;9.940;2023-05-18T11:48:28;14.40;99.90
31074;DHT22;17730;53.552;9.940;2023-05-18T11:50:54;14.40;99.90
31074;DHT22;17730;53.552;9.940;2023-05-18T11:53:23;14.20;99.90
31074;DHT22;17730;53.552;9.940;2023-05-18T11:55:50;14.40;99.90
31074;DHT22;17730;53.552;9.940;2023-05-18T11:58:16;14.80;99.90
31074;DHT22;17730;53.552;9.940;2023-05-18T12:00:44;15.20;99.90
31074;DHT22;17730;53.552;9.940;2023-05-18T12:03:11;15.10;99.90
31074;DHT22;17730;53.552;9.940;2023-05-18T12:05:37;15.20;99.90
31074;DHT22;17730;53.552;9.940;2023-05-18T12:08:06;14.90;99.90
31074;DHT22;17730;53.552;9.940;2023-05-18T12:10:32;14.60;99.90
31074;DHT22;17730;53.552;9.940;2023-05-18T12:12:58;14.60;99.90
31074;DHT22;17730;53.552;9.940;2023-05-18T12:15:25;14.40;99.90
31074;DHT22;17730;53.552;9.940;2023-05-18T12:17:52;14.10;99.90
31074;DHT22;17730;53.552;9.940;2023-05-18T12:20:21;14.30;99.90
31074;DHT22;17730;53.552;9.940;2023-05-18T12:22:53;14.50;99.90
31074;DHT22;17730;53.552;9.940;2023-05-18T12:25:19;14.80;99.90
31074;DHT22;17730;53.552;9.940;2023-05-18T12:27:46;15.20;99.90
31074;DHT22;17730;53.552;9.940;2023-05-18T12:32:43;15.70;99.90
31074;DHT22;17730;53.552;9.940;2023-05-18T12:35:09;15.70;99.90
31074;DHT22;17730;53.552;9.940;2023-05-18T12:37:41;15.80;99.90
31074;DHT22;17730;53.552;9.940;2023-05-18T12:40:08;15.70;99.90
31074;DHT22;17730;53.552;9.940;2023-05-18T12:42:33;15.40;99.90
31074;DHT22;17730;53.552;9.940;2023-05-18T12:44:59;15.30;99.90
31074;DHT22;17730;53.552;9.940;2023-05-18T12:47:25;15.20;99.90
31074;DHT22;17730;53.552;9.940;2023-05-18T12:49:52;15.00;99.90
31074;DHT22;17730;53.552;9.940;2023-05-18T12:52:19;15.00;99.90
31074;DHT22;17730;53.552;9.940;2023-05-18T12:54:49;15.30;99.90
31074;DHT22;17730;53.552;9.940;2023-05-18T12:57:20;15.40;99.90
31074;DHT22;17730;53.552;9.940;2023-05-18T12:59:46;15.20;99.90
31074;DHT22;17730;53.552;9.940;2023-05-18T13:04:59;15.00;99.90
31074;DHT22;17730;53.552;9.940;2023-05-18T13:07:25;15.20;99.90
31074;DHT22;17730;53.552;9.940;2023-05-18T13:09:51;15.30;99.90
31074;DHT22;17730;53.552;9.940;2023-05-18T13:12:16;15.30;99.90
31074;DHT22;17730;53.552;9.940;2023-05-18T13:14:42;15.20;99.90
31074;DHT22;17730;53.552;9.940;2023-05-18T13:17:07;15.30;99.90
31074;DHT22;17730;53.552;9.940;2023-05-18T13:19:36;15.40;99.90
31074;DHT22;17730;53.552;9.940;2023-05-18T13:22:01;15.60;99.90
31074;DHT22;17730;53.552;9.940;2023-05-18T13:24:27;15.80;99.90
31074;DHT22;17730;53.552;9.940;2023-05-18T13:26:52;15.70;99.90
31074;DHT22;17730;53.552;9.940;2023-05-18T13:29:18;15.40;99.90
31074;DHT22;17730;53.552;9.940;2023-05-18T13:31:43;15.40;99.90
31074;DHT22;17730;53.552;9.940;2023-05-18T13:34:09;15.50;99.90
31074;DHT22;17730;53.552;9.940;2023-05-18T13:36:35;15.70;99.90
31074;DHT22;17730;53.552;9.940;2023-05-18T13:39:01;16.00;99.90
31074;DHT22;17730;53.552;9.940;2023-05-18T13:41:31;16.00;99.90
31074;DHT22;17730;53.552;9.940;2023-05-18T13:43:57;15.70;99.90
31074;DHT22;17730;53.552;9.940;2023-05-18T13:46:22;15.60;99.90
31074;DHT22;17730;53.552;9.940;2023-05-18T13:48:48;15.50;99.90
31074;DHT22;17730;53.552;9.940;2023-05-18T13:51:13;15.50;99.90
31074;DHT22;17730;53.552;9.940;2023-05-18T13:53:39;15.80;99.90
31074;DHT22;17730;53.552;9.940;2023-05-18T13:56:04;16.10;99.90
31074;DHT22;17730;53.552;9.940;2023-05-18T13:58:30;16.20;99.90
31074;DHT22;17730;53.552;9.940;2023-05-18T14:00:56;16.40;99.90
31074;DHT22;17730;53.552;9.940;2023-05-18T14:03:21;16.70;99.90
31074;DHT22;17730;53.552;9.940;2023-05-18T14:05:48;16.50;99.90
31074;DHT22;17730;53.552;9.940;2023-05-18T14:08:13;16.20;99.90
31074;DHT22;17730;53.552;9.940;2023-05-18T14:10:39;15.70;99.90
31074;DHT22;17730;53.552;9.940;2023-05-18T14:13:04;15.60;99.90
31074;DHT22;17730;53.552;9.940;2023-05-18T14:15:32;15.60;99.90
31074;DHT22;17730;53.552;9.940;2023-05-18T14:17:58;15.70;99.90
31074;DHT22;17730;53.552;9.940;2023-05-18T14:20:23;15.80;99.90
31074;DHT22;17730;53.552;9.940;2023-05-18T14:22:49;15.60;99.90
31074;DHT22;17730;53.552;9.940;2023-05-18T14:25:14;15.70;99.90
31074;DHT22;17730;53.552;9.940;2023-05-18T14:27:40;15.50;99.90
31074;DHT22;17730;53.552;9.940;2023-05-18T14:30:06;15.60;99.90
31074;DHT22;17730;53.552;9.940;2023-05-18T14:32:31;15.50;99.90
31074;DHT22;17730;53.552;9.940;2023-05-18T14:34:57;15.50;99.90
31074;DHT22;17730;53.552;9.940;2023-05-18T14:37:22;15.60;99.90
31074;DHT22;17730;53.552;9.940;2023-05-18T14:39:48;15.70;99.90
31074;DHT22;17730;53.552;9.940;2023-05-18T14:42:13;15.70;99.90
31074;DHT22;17730;53.552;9.940;2023-05-18T14:44:39;16.00;99.90
31074;DHT22;17730;53.552;9.940;2023-05-18T14:47:05;15.90;99.90
31074;DHT22;17730;53.552;9.940;2023-05-18T14:49:30;15.80;99.90
31074;DHT22;17730;53.552;9.940;2023-05-18T14:51:55;15.80;99.90
31074;DHT22;17730;53.552;9.940;2023-05-18T14:54:21;15.80;99.90
31074;DHT22;17730;53.552;9.940;2023-05-18T14:56:47;15.90;99.90
31074;DHT22;17730;53.552;9.940;2023-05-18T14:59:12;16.10;99.90
31074;DHT22;17730;53.552;9.940;2023-05-18T15:01:38;16.20;99.90
31074;DHT22;17730;53.552;9.940;2023-05-18T15:04:03;16.10;99.90
31074;DHT22;17730;53.552;9.940;2023-05-18T15:06:29;16.10;99.90
31074;DHT22;17730;53.552;9.940;2023-05-18T15:08:55;16.10;99.90
31074;DHT22;17730;53.552;9.940;2023-05-18T15:11:21;16.10;99.90
31074;DHT22;17730;53.552;9.940;2023-05-18T15:13:47;16.20;99.90
31074;DHT22;17730;53.552;9.940;2023-05-18T15:16:13;16.50;99.90
31074;DHT22;17730;53.552;9.940;2023-05-18T15:18:39;16.50;99.90
31074;DHT22;17730;53.552;9.940;2023-05-18T15:21:04;16.50;99.90
31074;DHT22;17730;53.552;9.940;2023-05-18T15:23:30;16.60;99.90
31074;DHT22;17730;53.552;9.940;2023-05-18T15:25:55;16.40;99.90
31074;DHT22;17730;53.552;9.940;2023-05-18T15:28:21;16.40;99.90
31074;DHT22;17730;53.552;9.940;2023-05-18T15:30:46;16.30;99.90
31074;DHT22;17730;53.552;9.940;2023-05-18T15:33:11;16.30;99.90
31074;DHT22;17730;53.552;9.940;2023-05-18T15:35:37;16.20;99.90
31074;DHT22;17730;53.552;9.940;2023-05-18T15:38:03;16.10;99.90
31074;DHT22;17730;53.552;9.940;2023-05-18T15:40:29;16.10;99.90
31074;DHT22;17730;53.552;9.940;2023-05-18T15:42:54;16.30;99.90
31074;DHT22;17730;53.552;9.940;2023-05-18T15:45:20;16.40;99.90
31074;DHT22;17730;53.552;9.940;2023-05-18T15:47:45;16.50;99.90
31074;DHT22;17730;53.552;9.940;2023-05-18T15:50:11;16.70;99.90
31074;DHT22;17730;53.552;9.940;2023-05-18T15:52:37;16.80;99.90
31074;DHT22;17730;53.552;9.940;2023-05-18T15:55:03;16.70;99.90
31074;DHT22;17730;53.552;9.940;2023-05-18T15:57:29;16.70;99.90